Aérodrome :
LOGIN :

S'inscrire | Disclaimer

   EN    FR    IT 

 










Légende :    VFR   VFR Marginal   IFR   IFR Intensif   IFR Très Intensif
Visi : 
Plafond : 
>= 8 km
>= 3000ft
5 à 8 km
1000 à 3000 ft
1500m à 5 km
500 à 1000 ft
800 à 1500m
200 à 500 ft
< 800m
< 200 ft
Symboles :   Orages  Brouillard  Fortes neiges  Fortes précipitations  Vent > 20 kt
SIGMETs :   Divers  Orages  Givrage  Turbulence  Onde Orograph.  Cendres Volcan.







- Altitude de l'aérodrome : 146 ft
- Code IATA : RKE


EKRK - Roskilde Tune

DERNIER METAR :
  • 210420Z AUTO 27005KT 9999NDV -RA FEW014/// BKN070/// BKN090/// 12/12 Q1019

METARs EXPIRÉS :
  • 210350Z AUTO 27003KT 9000NDV -RA FEW011/// OVC070/// 12/11 Q1019
  • 210320Z AUTO 27003KT 9999NDV -RA BKN070/// 12/12 Q1019
  • 210250Z AUTO 26004KT 9999NDV -RA OVC070/// 12/12 Q1019
  • 210220Z AUTO 27003KT 9999NDV -RA BKN065/// OVC080/// 12/12 Q1019

TAF TAF EKRK
Valide du 21 à 03h jusqu'au 21 à 12h UTC


210221Z 2103/2112 VRB04KT 9999 SCT030
TEMPO 2103/2106 4000 RADZ BR BKN012
Pas de NOTAMs connus pour ce terrain.



MET'MAP, la Météo Aéronautique d'un coup d'oeil ! - Copyright ORBIFLY Décembre 2007 - Disclaimer

ORBIFLY MET'MAP TEAM :

Programmation & Développement : Alexandra Zaïnal
Conception & Développement : Baudouin d'Aumeries
Co-Programmation & Développement : Marc-Olivier Méhu
Soutien technique & logistique : Manuel Goepfert

Contact : metmap@orbifly.com




SOURCES & CREDITS :

   NOAA